sensor_id;sensor_type;location;lat;lon;timestamp;temperature;humidity
13589;DHT22;6865;52.552;13.434;2023-07-13T00:00:27;19.30;95.20
13589;DHT22;6865;52.552;13.434;2023-07-13T00:02:54;19.30;95.00
13589;DHT22;6865;52.552;13.434;2023-07-13T00:05:22;19.30;95.00
13589;DHT22;6865;52.552;13.434;2023-07-13T00:07:50;19.30;94.90
13589;DHT22;6865;52.552;13.434;2023-07-13T00:10:17;19.30;95.20
13589;DHT22;6865;52.552;13.434;2023-07-13T00:12:44;19.40;94.70
13589;DHT22;6865;52.552;13.434;2023-07-13T00:15:18;19.30;94.60
13589;DHT22;6865;52.552;13.434;2023-07-13T00:17:50;19.30;94.70
13589;DHT22;6865;52.552;13.434;2023-07-13T00:20:17;19.30;94.80
13589;DHT22;6865;52.552;13.434;2023-07-13T00:22:44;19.30;94.90
13589;DHT22;6865;52.552;13.434;2023-07-13T00:25:12;19.20;94.90
13589;DHT22;6865;52.552;13.434;2023-07-13T00:27:41;19.20;95.00
13589;DHT22;6865;52.552;13.434;2023-07-13T00:30:08;19.10;95.20
13589;DHT22;6865;52.552;13.434;2023-07-13T00:32:35;19.10;95.40
13589;DHT22;6865;52.552;13.434;2023-07-13T00:35:02;19.00;95.40
13589;DHT22;6865;52.552;13.434;2023-07-13T00:37:31;19.10;95.40
13589;DHT22;6865;52.552;13.434;2023-07-13T00:39:58;19.00;95.60
13589;DHT22;6865;52.552;13.434;2023-07-13T00:42:25;18.90;95.80
13589;DHT22;6865;52.552;13.434;2023-07-13T00:47:39;19.00;96.00
13589;DHT22;6865;52.552;13.434;2023-07-13T00:50:08;19.00;95.90
13589;DHT22;6865;52.552;13.434;2023-07-13T00:52:37;19.30;96.00
13589;DHT22;6865;52.552;13.434;2023-07-13T00:55:05;18.80;96.20
13589;DHT22;6865;52.552;13.434;2023-07-13T00:57:31;18.70;96.60
13589;DHT22;6865;52.552;13.434;2023-07-13T00:59:59;18.70;96.90
13589;DHT22;6865;52.552;13.434;2023-07-13T01:02:34;18.60;96.90
13589;DHT22;6865;52.552;13.434;2023-07-13T01:05:01;18.70;97.30
13589;DHT22;6865;52.552;13.434;2023-07-13T01:07:28;18.60;97.40
13589;DHT22;6865;52.552;13.434;2023-07-13T01:09:55;18.60;97.40
13589;DHT22;6865;52.552;13.434;2023-07-13T01:12:21;18.80;97.30
13589;DHT22;6865;52.552;13.434;2023-07-13T01:14:48;18.80;97.30
13589;DHT22;6865;52.552;13.434;2023-07-13T01:17:15;18.80;97.30
13589;DHT22;6865;52.552;13.434;2023-07-13T01:19:45;18.70;97.50
13589;DHT22;6865;52.552;13.434;2023-07-13T01:22:14;18.40;97.70
13589;DHT22;6865;52.552;13.434;2023-07-13T01:24:43;18.70;98.00
13589;DHT22;6865;52.552;13.434;2023-07-13T01:27:13;18.50;98.20
13589;DHT22;6865;52.552;13.434;2023-07-13T01:29:41;18.50;98.70
13589;DHT22;6865;52.552;13.434;2023-07-13T01:32:10;18.40;99.00
13589;DHT22;6865;52.552;13.434;2023-07-13T01:34:37;18.30;99.30
13589;DHT22;6865;52.552;13.434;2023-07-13T01:37:05;18.20;99.60
13589;DHT22;6865;52.552;13.434;2023-07-13T01:39:31;18.30;99.90
13589;DHT22;6865;52.552;13.434;2023-07-13T01:41:58;18.20;99.90
13589;DHT22;6865;52.552;13.434;2023-07-13T01:44:25;18.10;99.90
13589;DHT22;6865;52.552;13.434;2023-07-13T01:46:52;18.10;99.90
13589;DHT22;6865;52.552;13.434;2023-07-13T01:49:19;18.20;99.90
13589;DHT22;6865;52.552;13.434;2023-07-13T01:51:46;18.10;99.90
13589;DHT22;6865;52.552;13.434;2023-07-13T01:54:12;18.00;99.90
13589;DHT22;6865;52.552;13.434;2023-07-13T01:56:39;18.10;99.90
13589;DHT22;6865;52.552;13.434;2023-07-13T01:59:08;18.00;99.90
13589;DHT22;6865;52.552;13.434;2023-07-13T02:01:35;17.90;99.90
13589;DHT22;6865;52.552;13.434;2023-07-13T02:04:02;17.90;99.90
13589;DHT22;6865;52.552;13.434;2023-07-13T02:06:29;17.80;99.90
13589;DHT22;6865;52.552;13.434;2023-07-13T02:08:56;17.80;99.90
13589;DHT22;6865;52.552;13.434;2023-07-13T02:11:22;17.90;99.90
13589;DHT22;6865;52.552;13.434;2023-07-13T02:13:49;17.90;99.90
13589;DHT22;6865;52.552;13.434;2023-07-13T02:16:16;18.00;99.90
13589;DHT22;6865;52.552;13.434;2023-07-13T02:18:43;17.90;99.90
13589;DHT22;6865;52.552;13.434;2023-07-13T02:21:09;17.90;99.90
13589;DHT22;6865;52.552;13.434;2023-07-13T02:23:36;17.90;99.90
13589;DHT22;6865;52.552;13.434;2023-07-13T02:26:03;18.00;99.90
13589;DHT22;6865;52.552;13.434;2023-07-13T02:28:30;18.00;99.90
13589;DHT22;6865;52.552;13.434;2023-07-13T02:31:11;17.90;99.90
13589;DHT22;6865;52.552;13.434;2023-07-13T02:33:38;17.80;99.90
13589;DHT22;6865;52.552;13.434;2023-07-13T02:36:05;17.80;99.90
13589;DHT22;6865;52.552;13.434;2023-07-13T02:38:34;17.70;99.90
13589;DHT22;6865;52.552;13.434;2023-07-13T02:41:04;17.60;99.90
13589;DHT22;6865;52.552;13.434;2023-07-13T02:43:30;17.80;99.90
13589;DHT22;6865;52.552;13.434;2023-07-13T02:45:59;17.70;99.90
13589;DHT22;6865;52.552;13.434;2023-07-13T02:48:30;17.70;99.90
13589;DHT22;6865;52.552;13.434;2023-07-13T02:50:57;17.90;99.90
13589;DHT22;6865;52.552;13.434;2023-07-13T02:53:24;17.80;99.90
13589;DHT22;6865;52.552;13.434;2023-07-13T02:55:50;17.80;99.90
13589;DHT22;6865;52.552;13.434;2023-07-13T02:58:17;17.70;99.90
13589;DHT22;6865;52.552;13.434;2023-07-13T03:00:45;17.70;99.90
13589;DHT22;6865;52.552;13.434;2023-07-13T03:03:13;17.60;99.90
13589;DHT22;6865;52.552;13.434;2023-07-13T03:05:42;17.60;99.90
13589;DHT22;6865;52.552;13.434;2023-07-13T03:08:09;17.70;99.90
13589;DHT22;6865;52.552;13.434;2023-07-13T03:10:37;17.80;99.90
13589;DHT22;6865;52.552;13.434;2023-07-13T03:13:04;17.80;99.90
13589;DHT22;6865;52.552;13.434;2023-07-13T03:15:31;17.70;99.90
13589;DHT22;6865;52.552;13.434;2023-07-13T03:17:58;17.70;99.90
13589;DHT22;6865;52.552;13.434;2023-07-13T03:20:25;17.60;99.90
13589;DHT22;6865;52.552;13.434;2023-07-13T03:22:51;17.60;99.90
13589;DHT22;6865;52.552;13.434;2023-07-13T03:25:18;17.60;99.90
13589;DHT22;6865;52.552;13.434;2023-07-13T03:27:45;17.60;99.90
13589;DHT22;6865;52.552;13.434;2023-07-13T03:30:12;17.60;99.90
13589;DHT22;6865;52.552;13.434;2023-07-13T03:32:38;17.60;99.90
13589;DHT22;6865;52.552;13.434;2023-07-13T03:35:05;17.70;99.90
13589;DHT22;6865;52.552;13.434;2023-07-13T03:37:32;17.70;99.90
13589;DHT22;6865;52.552;13.434;2023-07-13T03:39:59;17.70;99.90
13589;DHT22;6865;52.552;13.434;2023-07-13T03:42:25;17.70;99.90
13589;DHT22;6865;52.552;13.434;2023-07-13T03:44:52;17.90;99.90
13589;DHT22;6865;52.552;13.434;2023-07-13T03:47:19;18.00;99.90
13589;DHT22;6865;52.552;13.434;2023-07-13T03:49:46;18.00;99.90
13589;DHT22;6865;52.552;13.434;2023-07-13T03:52:12;18.00;99.90
13589;DHT22;6865;52.552;13.434;2023-07-13T03:54:39;18.00;99.90
13589;DHT22;6865;52.552;13.434;2023-07-13T03:57:06;18.00;99.90
13589;DHT22;6865;52.552;13.434;2023-07-13T03:59:33;18.00;99.90
13589;DHT22;6865;52.552;13.434;2023-07-13T04:02:01;18.00;99.90
13589;DHT22;6865;52.552;13.434;2023-07-13T04:04:28;17.90;99.90
13589;DHT22;6865;52.552;13.434;2023-07-13T04:06:55;17.90;99.90
13589;DHT22;6865;52.552;13.434;2023-07-13T04:09:21;17.90;99.90
13589;DHT22;6865;52.552;13.434;2023-07-13T04:11:48;17.90;99.90
13589;DHT22;6865;52.552;13.434;2023-07-13T04:14:14;17.80;99.90
13589;DHT22;6865;52.552;13.434;2023-07-13T04:16:42;17.90;99.90
13589;DHT22;6865;52.552;13.434;2023-07-13T04:19:10;18.10;99.90
13589;DHT22;6865;52.552;13.434;2023-07-13T04:21:37;18.00;99.90
13589;DHT22;6865;52.552;13.434;2023-07-13T04:24:04;18.00;99.90
13589;DHT22;6865;52.552;13.434;2023-07-13T04:26:30;18.00;99.90
13589;DHT22;6865;52.552;13.434;2023-07-13T04:28:57;18.00;99.90
13589;DHT22;6865;52.552;13.434;2023-07-13T04:31:24;18.10;99.90
13589;DHT22;6865;52.552;13.434;2023-07-13T04:33:51;18.20;99.90
13589;DHT22;6865;52.552;13.434;2023-07-13T04:36:18;18.20;99.90
13589;DHT22;6865;52.552;13.434;2023-07-13T04:38:45;18.20;99.90
13589;DHT22;6865;52.552;13.434;2023-07-13T04:41:13;18.20;99.90
13589;DHT22;6865;52.552;13.434;2023-07-13T04:43:39;18.10;99.90
13589;DHT22;6865;52.552;13.434;2023-07-13T04:46:09;18.10;99.90
13589;DHT22;6865;52.552;13.434;2023-07-13T04:48:38;18.20;99.90
13589;DHT22;6865;52.552;13.434;2023-07-13T04:51:05;18.20;99.90
13589;DHT22;6865;52.552;13.434;2023-07-13T04:53:32;18.20;99.90
13589;DHT22;6865;52.552;13.434;2023-07-13T04:56:01;18.40;99.90
13589;DHT22;6865;52.552;13.434;2023-07-13T04:58:29;18.40;99.90
13589;DHT22;6865;52.552;13.434;2023-07-13T05:01:05;18.50;99.90
13589;DHT22;6865;52.552;13.434;2023-07-13T05:03:33;18.50;99.90
13589;DHT22;6865;52.552;13.434;2023-07-13T05:06:03;18.60;99.90
13589;DHT22;6865;52.552;13.434;2023-07-13T05:08:30;18.70;99.90
13589;DHT22;6865;52.552;13.434;2023-07-13T05:10:59;18.70;99.90
13589;DHT22;6865;52.552;13.434;2023-07-13T05:13:26;18.80;99.90
13589;DHT22;6865;52.552;13.434;2023-07-13T05:16:01;18.80;99.90
13589;DHT22;6865;52.552;13.434;2023-07-13T05:18:29;18.80;99.90
13589;DHT22;6865;52.552;13.434;2023-07-13T05:21:05;18.80;99.90
13589;DHT22;6865;52.552;13.434;2023-07-13T05:23:33;18.80;99.90
13589;DHT22;6865;52.552;13.434;2023-07-13T05:26:00;18.90;99.90
13589;DHT22;6865;52.552;13.434;2023-07-13T05:28:28;19.00;99.90
13589;DHT22;6865;52.552;13.434;2023-07-13T05:30:56;19.10;99.90
13589;DHT22;6865;52.552;13.434;2023-07-13T05:33:23;19.10;99.90
13589;DHT22;6865;52.552;13.434;2023-07-13T05:35:50;19.20;99.90
13589;DHT22;6865;52.552;13.434;2023-07-13T05:38:17;19.20;99.90
13589;DHT22;6865;52.552;13.434;2023-07-13T05:40:45;19.30;99.90
13589;DHT22;6865;52.552;13.434;2023-07-13T05:43:12;19.30;99.90
13589;DHT22;6865;52.552;13.434;2023-07-13T05:45:39;19.30;99.90
13589;DHT22;6865;52.552;13.434;2023-07-13T05:48:06;19.40;99.90
13589;DHT22;6865;52.552;13.434;2023-07-13T05:50:33;19.50;99.90
13589;DHT22;6865;52.552;13.434;2023-07-13T05:53:00;19.30;99.90
13589;DHT22;6865;52.552;13.434;2023-07-13T05:55:27;19.70;99.90
13589;DHT22;6865;52.552;13.434;2023-07-13T05:57:53;19.80;99.90
13589;DHT22;6865;52.552;13.434;2023-07-13T06:00:20;20.00;99.90
13589;DHT22;6865;52.552;13.434;2023-07-13T06:02:47;20.20;99.90
13589;DHT22;6865;52.552;13.434;2023-07-13T06:05:14;20.30;99.90
13589;DHT22;6865;52.552;13.434;2023-07-13T06:07:41;20.60;99.90
13589;DHT22;6865;52.552;13.434;2023-07-13T06:10:08;20.80;99.90
13589;DHT22;6865;52.552;13.434;2023-07-13T06:12:35;21.00;99.90
13589;DHT22;6865;52.552;13.434;2023-07-13T06:15:02;21.00;99.90
13589;DHT22;6865;52.552;13.434;2023-07-13T06:17:29;21.00;99.90
13589;DHT22;6865;52.552;13.434;2023-07-13T06:19:57;21.00;99.90
13589;DHT22;6865;52.552;13.434;2023-07-13T06:22:24;21.00;99.90
13589;DHT22;6865;52.552;13.434;2023-07-13T06:24:51;21.10;99.90
13589;DHT22;6865;52.552;13.434;2023-07-13T06:27:18;21.10;99.90
13589;DHT22;6865;52.552;13.434;2023-07-13T06:29:45;21.10;99.90
13589;DHT22;6865;52.552;13.434;2023-07-13T06:32:12;21.30;99.90
13589;DHT22;6865;52.552;13.434;2023-07-13T06:34:38;21.50;99.90
13589;DHT22;6865;52.552;13.434;2023-07-13T06:37:09;21.40;99.90
13589;DHT22;6865;52.552;13.434;2023-07-13T06:39:36;21.40;99.90
13589;DHT22;6865;52.552;13.434;2023-07-13T06:42:03;21.30;99.90
13589;DHT22;6865;52.552;13.434;2023-07-13T06:44:31;21.30;99.90
13589;DHT22;6865;52.552;13.434;2023-07-13T06:46:57;21.40;99.90
13589;DHT22;6865;52.552;13.434;2023-07-13T06:49:24;21.50;99.90
13589;DHT22;6865;52.552;13.434;2023-07-13T06:51:51;21.50;99.70
13589;DHT22;6865;52.552;13.434;2023-07-13T06:54:17;21.60;99.60
13589;DHT22;6865;52.552;13.434;2023-07-13T06:56:44;21.80;99.10
13589;DHT22;6865;52.552;13.434;2023-07-13T06:59:11;21.80;99.00
13589;DHT22;6865;52.552;13.434;2023-07-13T07:01:37;21.80;99.00
13589;DHT22;6865;52.552;13.434;2023-07-13T07:04:07;21.80;99.20
13589;DHT22;6865;52.552;13.434;2023-07-13T07:06:35;21.90;98.40
13589;DHT22;6865;52.552;13.434;2023-07-13T07:09:01;22.00;98.60
13589;DHT22;6865;52.552;13.434;2023-07-13T07:11:28;22.10;98.10
13589;DHT22;6865;52.552;13.434;2023-07-13T07:13:55;22.20;97.70
13589;DHT22;6865;52.552;13.434;2023-07-13T07:16:23;22.30;97.20
13589;DHT22;6865;52.552;13.434;2023-07-13T07:18:50;22.20;96.90
13589;DHT22;6865;52.552;13.434;2023-07-13T07:21:17;22.40;96.60
13589;DHT22;6865;52.552;13.434;2023-07-13T07:23:44;22.50;96.30
13589;DHT22;6865;52.552;13.434;2023-07-13T07:26:10;22.70;95.90
13589;DHT22;6865;52.552;13.434;2023-07-13T07:28:38;22.90;95.90
13589;DHT22;6865;52.552;13.434;2023-07-13T07:31:09;22.90;95.10
13589;DHT22;6865;52.552;13.434;2023-07-13T07:33:39;23.00;94.30
13589;DHT22;6865;52.552;13.434;2023-07-13T07:36:06;22.80;93.40
13589;DHT22;6865;52.552;13.434;2023-07-13T07:38:35;22.70;93.50
13589;DHT22;6865;52.552;13.434;2023-07-13T07:41:04;22.70;93.90
13589;DHT22;6865;52.552;13.434;2023-07-13T07:43:36;22.70;93.90
13589;DHT22;6865;52.552;13.434;2023-07-13T07:46:03;22.80;93.60
13589;DHT22;6865;52.552;13.434;2023-07-13T07:48:30;22.80;93.40
13589;DHT22;6865;52.552;13.434;2023-07-13T07:50:57;23.00;93.20
13589;DHT22;6865;52.552;13.434;2023-07-13T07:53:24;23.00;93.10
13589;DHT22;6865;52.552;13.434;2023-07-13T07:55:51;23.20;93.20
13589;DHT22;6865;52.552;13.434;2023-07-13T07:58:21;23.20;92.50
13589;DHT22;6865;52.552;13.434;2023-07-13T08:00:50;23.20;92.00
13589;DHT22;6865;52.552;13.434;2023-07-13T08:03:20;23.20;91.90
13589;DHT22;6865;52.552;13.434;2023-07-13T08:05:53;23.50;91.40
13589;DHT22;6865;52.552;13.434;2023-07-13T08:08:22;23.40;90.80
13589;DHT22;6865;52.552;13.434;2023-07-13T08:10:49;23.20;91.40
13589;DHT22;6865;52.552;13.434;2023-07-13T08:13:16;23.30;91.80
13589;DHT22;6865;52.552;13.434;2023-07-13T08:15:43;23.40;91.90
13589;DHT22;6865;52.552;13.434;2023-07-13T08:18:10;24.00;91.00
13589;DHT22;6865;52.552;13.434;2023-07-13T08:20:38;24.20;89.60
13589;DHT22;6865;52.552;13.434;2023-07-13T08:23:07;24.30;88.90
13589;DHT22;6865;52.552;13.434;2023-07-13T08:25:34;24.30;89.00
13589;DHT22;6865;52.552;13.434;2023-07-13T08:28:02;24.10;89.50
13589;DHT22;6865;52.552;13.434;2023-07-13T08:30:29;24.30;89.20
13589;DHT22;6865;52.552;13.434;2023-07-13T08:32:56;24.40;89.30
13589;DHT22;6865;52.552;13.434;2023-07-13T08:35:23;24.40;89.10
13589;DHT22;6865;52.552;13.434;2023-07-13T08:37:52;24.50;88.20
13589;DHT22;6865;52.552;13.434;2023-07-13T08:40:19;24.70;87.70
13589;DHT22;6865;52.552;13.434;2023-07-13T08:42:55;24.60;87.10
13589;DHT22;6865;52.552;13.434;2023-07-13T08:45:36;24.60;86.10
13589;DHT22;6865;52.552;13.434;2023-07-13T08:48:15;24.70;86.20
13589;DHT22;6865;52.552;13.434;2023-07-13T08:50:53;24.70;86.40
13589;DHT22;6865;52.552;13.434;2023-07-13T08:53:41;24.60;86.60
13589;DHT22;6865;52.552;13.434;2023-07-13T08:56:17;24.50;86.20
13589;DHT22;6865;52.552;13.434;2023-07-13T08:58:48;24.30;85.50
13589;DHT22;6865;52.552;13.434;2023-07-13T09:01:23;24.40;84.40
13589;DHT22;6865;52.552;13.434;2023-07-13T09:04:05;24.40;84.90
13589;DHT22;6865;52.552;13.434;2023-07-13T09:09:39;25.00;82.60
13589;DHT22;6865;52.552;13.434;2023-07-13T09:15:30;24.50;82.00
13589;DHT22;6865;52.552;13.434;2023-07-13T09:18:08;24.50;81.80
13589;DHT22;6865;52.552;13.434;2023-07-13T09:20:44;24.30;82.00
13589;DHT22;6865;52.552;13.434;2023-07-13T09:23:16;24.20;82.70
13589;DHT22;6865;52.552;13.434;2023-07-13T09:25:47;24.30;82.30
13589;DHT22;6865;52.552;13.434;2023-07-13T09:28:22;24.30;79.60
13589;DHT22;6865;52.552;13.434;2023-07-13T09:31:02;24.40;78.60
13589;DHT22;6865;52.552;13.434;2023-07-13T09:33:30;24.50;79.00
13589;DHT22;6865;52.552;13.434;2023-07-13T09:35:58;24.30;75.50
13589;DHT22;6865;52.552;13.434;2023-07-13T09:38:28;24.10;75.30
13589;DHT22;6865;52.552;13.434;2023-07-13T09:41:19;24.10;77.20
13589;DHT22;6865;52.552;13.434;2023-07-13T09:44:17;24.30;78.40
13589;DHT22;6865;52.552;13.434;2023-07-13T09:46:46;24.40;75.40
13589;DHT22;6865;52.552;13.434;2023-07-13T09:49:13;24.60;76.10
13589;DHT22;6865;52.552;13.434;2023-07-13T09:51:41;24.90;76.10
13589;DHT22;6865;52.552;13.434;2023-07-13T09:54:20;24.90;76.90
13589;DHT22;6865;52.552;13.434;2023-07-13T09:56:46;24.90;77.40
13589;DHT22;6865;52.552;13.434;2023-07-13T09:59:26;24.70;74.60
13589;DHT22;6865;52.552;13.434;2023-07-13T10:01:53;24.80;74.50
13589;DHT22;6865;52.552;13.434;2023-07-13T10:04:30;24.80;74.40
13589;DHT22;6865;52.552;13.434;2023-07-13T10:07:08;24.90;74.20
13589;DHT22;6865;52.552;13.434;2023-07-13T10:09:55;24.90;74.70
13589;DHT22;6865;52.552;13.434;2023-07-13T10:12:23;25.00;74.30
13589;DHT22;6865;52.552;13.434;2023-07-13T10:14:54;25.10;74.10
13589;DHT22;6865;52.552;13.434;2023-07-13T10:17:34;25.30;74.20
13589;DHT22;6865;52.552;13.434;2023-07-13T10:20:04;25.30;72.40
13589;DHT22;6865;52.552;13.434;2023-07-13T10:22:52;25.40;73.50
13589;DHT22;6865;52.552;13.434;2023-07-13T10:25:23;25.30;73.80
13589;DHT22;6865;52.552;13.434;2023-07-13T10:28:16;25.50;73.20
13589;DHT22;6865;52.552;13.434;2023-07-13T10:30:41;25.30;73.30
13589;DHT22;6865;52.552;13.434;2023-07-13T10:33:11;25.30;73.50
13589;DHT22;6865;52.552;13.434;2023-07-13T10:35:42;25.30;73.30
13589;DHT22;6865;52.552;13.434;2023-07-13T10:38:15;25.30;72.60
13589;DHT22;6865;52.552;13.434;2023-07-13T10:41:01;25.40;72.00
13589;DHT22;6865;52.552;13.434;2023-07-13T10:43:43;25.40;70.40
13589;DHT22;6865;52.552;13.434;2023-07-13T10:46:14;25.50;69.60
13589;DHT22;6865;52.552;13.434;2023-07-13T10:48:44;25.30;71.70
13589;DHT22;6865;52.552;13.434;2023-07-13T10:51:14;25.10;72.80
13589;DHT22;6865;52.552;13.434;2023-07-13T10:53:41;26.40;72.50
13589;DHT22;6865;52.552;13.434;2023-07-13T10:56:24;24.70;72.30
13589;DHT22;6865;52.552;13.434;2023-07-13T10:59:12;24.70;73.10
13589;DHT22;6865;52.552;13.434;2023-07-13T11:02:00;24.70;73.60
13589;DHT22;6865;52.552;13.434;2023-07-13T11:04:44;24.70;73.80
13589;DHT22;6865;52.552;13.434;2023-07-13T11:07:32;24.80;73.70
13589;DHT22;6865;52.552;13.434;2023-07-13T11:10:51;24.50;73.60
13589;DHT22;6865;52.552;13.434;2023-07-13T11:13:55;24.30;74.10
13589;DHT22;6865;52.552;13.434;2023-07-13T11:21:32;24.90;72.70
13589;DHT22;6865;52.552;13.434;2023-07-13T11:24:04;24.90;72.60
13589;DHT22;6865;52.552;13.434;2023-07-13T11:31:42;25.20;69.50
13589;DHT22;6865;52.552;13.434;2023-07-13T11:34:14;25.50;68.60
13589;DHT22;6865;52.552;13.434;2023-07-13T11:36:45;25.60;68.60
13589;DHT22;6865;52.552;13.434;2023-07-13T11:39:17;25.50;68.70
13589;DHT22;6865;52.552;13.434;2023-07-13T11:41:56;25.50;68.60
13589;DHT22;6865;52.552;13.434;2023-07-13T11:44:26;25.20;68.40
13589;DHT22;6865;52.552;13.434;2023-07-13T11:46:58;25.40;67.50
13589;DHT22;6865;52.552;13.434;2023-07-13T11:49:30;25.60;66.30
13589;DHT22;6865;52.552;13.434;2023-07-13T11:51:59;25.80;65.90
13589;DHT22;6865;52.552;13.434;2023-07-13T11:54:30;25.90;64.20
13589;DHT22;6865;52.552;13.434;2023-07-13T11:57:06;25.90;63.10
13589;DHT22;6865;52.552;13.434;2023-07-13T11:59:40;25.70;62.80
13589;DHT22;6865;52.552;13.434;2023-07-13T12:02:18;25.80;64.20
13589;DHT22;6865;52.552;13.434;2023-07-13T12:04:50;25.80;64.10
13589;DHT22;6865;52.552;13.434;2023-07-13T12:07:19;25.90;62.90
13589;DHT22;6865;52.552;13.434;2023-07-13T12:09:46;25.70;64.20
13589;DHT22;6865;52.552;13.434;2023-07-13T12:12:18;25.50;64.60
13589;DHT22;6865;52.552;13.434;2023-07-13T12:14:45;25.60;64.20
13589;DHT22;6865;52.552;13.434;2023-07-13T12:17:16;25.40;62.30
13589;DHT22;6865;52.552;13.434;2023-07-13T12:19:45;25.50;62.80
13589;DHT22;6865;52.552;13.434;2023-07-13T12:22:14;25.60;62.10
13589;DHT22;6865;52.552;13.434;2023-07-13T12:24:43;25.80;62.90
13589;DHT22;6865;52.552;13.434;2023-07-13T12:27:19;25.70;62.90
13589;DHT22;6865;52.552;13.434;2023-07-13T12:30:00;25.60;63.90
13589;DHT22;6865;52.552;13.434;2023-07-13T12:32:27;25.40;64.90
13589;DHT22;6865;52.552;13.434;2023-07-13T12:35:16;25.20;65.30
13589;DHT22;6865;52.552;13.434;2023-07-13T12:37:47;25.40;65.70
13589;DHT22;6865;52.552;13.434;2023-07-13T12:40:19;25.40;65.40
13589;DHT22;6865;52.552;13.434;2023-07-13T12:42:47;25.50;64.40
13589;DHT22;6865;52.552;13.434;2023-07-13T12:45:22;25.70;63.40
13589;DHT22;6865;52.552;13.434;2023-07-13T12:47:53;25.60;62.70
13589;DHT22;6865;52.552;13.434;2023-07-13T12:50:23;25.70;63.70
13589;DHT22;6865;52.552;13.434;2023-07-13T12:52:53;25.90;61.90
13589;DHT22;6865;52.552;13.434;2023-07-13T12:55:21;26.10;60.90
13589;DHT22;6865;52.552;13.434;2023-07-13T12:57:56;26.20;61.40
13589;DHT22;6865;52.552;13.434;2023-07-13T13:00:31;25.80;60.60
13589;DHT22;6865;52.552;13.434;2023-07-13T13:03:05;25.60;60.40
13589;DHT22;6865;52.552;13.434;2023-07-13T13:05:57;25.30;59.20
13589;DHT22;6865;52.552;13.434;2023-07-13T13:08:26;25.50;59.50
13589;DHT22;6865;52.552;13.434;2023-07-13T13:10:53;25.00;59.10
13589;DHT22;6865;52.552;13.434;2023-07-13T13:13:19;25.30;61.00
13589;DHT22;6865;52.552;13.434;2023-07-13T13:15:46;25.40;61.30
13589;DHT22;6865;52.552;13.434;2023-07-13T13:18:19;25.50;61.80
13589;DHT22;6865;52.552;13.434;2023-07-13T13:20:46;25.60;61.70
13589;DHT22;6865;52.552;13.434;2023-07-13T13:23:18;25.70;61.60
13589;DHT22;6865;52.552;13.434;2023-07-13T13:25:49;25.70;60.40
13589;DHT22;6865;52.552;13.434;2023-07-13T13:28:19;25.90;60.00
13589;DHT22;6865;52.552;13.434;2023-07-13T13:30:48;26.00;60.80
13589;DHT22;6865;52.552;13.434;2023-07-13T13:33:18;26.00;59.90
13589;DHT22;6865;52.552;13.434;2023-07-13T13:35:45;26.10;60.50
13589;DHT22;6865;52.552;13.434;2023-07-13T13:38:14;26.20;60.70
13589;DHT22;6865;52.552;13.434;2023-07-13T13:40:43;26.10;60.80
13589;DHT22;6865;52.552;13.434;2023-07-13T13:43:18;26.10;61.00
13589;DHT22;6865;52.552;13.434;2023-07-13T13:45:45;26.00;60.20
13589;DHT22;6865;52.552;13.434;2023-07-13T13:48:21;25.90;61.00
13589;DHT22;6865;52.552;13.434;2023-07-13T13:50:57;26.00;61.30
13589;DHT22;6865;52.552;13.434;2023-07-13T13:53:24;25.80;61.60
13589;DHT22;6865;52.552;13.434;2023-07-13T13:55:51;25.80;61.70
13589;DHT22;6865;52.552;13.434;2023-07-13T13:58:19;25.80;61.00
13589;DHT22;6865;52.552;13.434;2023-07-13T14:00:47;25.90;61.20
13589;DHT22;6865;52.552;13.434;2023-07-13T14:03:19;25.90;61.50
13589;DHT22;6865;52.552;13.434;2023-07-13T14:05:47;25.90;62.20
13589;DHT22;6865;52.552;13.434;2023-07-13T14:08:19;26.00;62.20
13589;DHT22;6865;52.552;13.434;2023-07-13T14:10:50;26.00;62.20
13589;DHT22;6865;52.552;13.434;2023-07-13T14:13:25;25.90;62.20
13589;DHT22;6865;52.552;13.434;2023-07-13T14:15:53;26.00;62.40
13589;DHT22;6865;52.552;13.434;2023-07-13T14:18:21;26.10;61.90
13589;DHT22;6865;52.552;13.434;2023-07-13T14:20:48;26.10;61.70
13589;DHT22;6865;52.552;13.434;2023-07-13T14:23:16;26.10;61.50
13589;DHT22;6865;52.552;13.434;2023-07-13T14:25:45;25.90;61.30
13589;DHT22;6865;52.552;13.434;2023-07-13T14:28:21;25.80;61.90
13589;DHT22;6865;52.552;13.434;2023-07-13T14:30:49;25.90;61.90
13589;DHT22;6865;52.552;13.434;2023-07-13T14:33:17;26.00;61.70
13589;DHT22;6865;52.552;13.434;2023-07-13T14:35:44;25.90;61.60
13589;DHT22;6865;52.552;13.434;2023-07-13T14:38:17;25.80;62.10
13589;DHT22;6865;52.552;13.434;2023-07-13T14:40:44;25.90;62.60
13589;DHT22;6865;52.552;13.434;2023-07-13T14:43:12;25.90;62.70
13589;DHT22;6865;52.552;13.434;2023-07-13T14:45:50;25.80;62.70
13589;DHT22;6865;52.552;13.434;2023-07-13T14:48:20;25.80;62.90
13589;DHT22;6865;52.552;13.434;2023-07-13T14:50:53;25.40;61.30
13589;DHT22;6865;52.552;13.434;2023-07-13T14:53:20;25.80;61.30
13589;DHT22;6865;52.552;13.434;2023-07-13T14:55:48;25.60;61.90
13589;DHT22;6865;52.552;13.434;2023-07-13T14:58:16;25.50;62.50
13589;DHT22;6865;52.552;13.434;2023-07-13T15:00:43;25.50;62.60
13589;DHT22;6865;52.552;13.434;2023-07-13T15:03:24;25.40;62.40
13589;DHT22;6865;52.552;13.434;2023-07-13T15:05:51;25.50;61.70
13589;DHT22;6865;52.552;13.434;2023-07-13T15:08:19;25.50;60.80
13589;DHT22;6865;52.552;13.434;2023-07-13T15:10:46;25.70;60.60
13589;DHT22;6865;52.552;13.434;2023-07-13T15:13:14;25.70;61.10
13589;DHT22;6865;52.552;13.434;2023-07-13T15:15:43;25.70;60.60
13589;DHT22;6865;52.552;13.434;2023-07-13T15:18:13;25.60;60.70
13589;DHT22;6865;52.552;13.434;2023-07-13T15:20:40;25.50;60.60
13589;DHT22;6865;52.552;13.434;2023-07-13T15:23:09;25.60;60.50
13589;DHT22;6865;52.552;13.434;2023-07-13T15:25:36;25.70;60.50
13589;DHT22;6865;52.552;13.434;2023-07-13T15:28:03;25.70;60.90
13589;DHT22;6865;52.552;13.434;2023-07-13T15:30:43;25.50;60.00
13589;DHT22;6865;52.552;13.434;2023-07-13T15:33:22;25.50;60.00
13589;DHT22;6865;52.552;13.434;2023-07-13T15:35:50;25.50;61.00
13589;DHT22;6865;52.552;13.434;2023-07-13T15:38:20;25.60;60.90
13589;DHT22;6865;52.552;13.434;2023-07-13T15:40:48;25.50;60.50
13589;DHT22;6865;52.552;13.434;2023-07-13T15:43:16;25.40;61.20
13589;DHT22;6865;52.552;13.434;2023-07-13T15:45:44;25.30;61.20
13589;DHT22;6865;52.552;13.434;2023-07-13T15:48:20;25.30;61.50
13589;DHT22;6865;52.552;13.434;2023-07-13T15:50:49;25.30;62.20
13589;DHT22;6865;52.552;13.434;2023-07-13T15:53:26;25.30;62.20
13589;DHT22;6865;52.552;13.434;2023-07-13T15:55:55;25.20;62.00
13589;DHT22;6865;52.552;13.434;2023-07-13T15:58:22;25.20;62.60
13589;DHT22;6865;52.552;13.434;2023-07-13T16:00:49;25.10;62.90
13589;DHT22;6865;52.552;13.434;2023-07-13T16:03:20;25.10;62.90
13589;DHT22;6865;52.552;13.434;2023-07-13T16:05:47;25.10;63.00